createdAt,value
2022-09-03T00:00:41.902Z,100778.44
2022-09-03T00:03:20.957Z,100767.81
2022-09-03T00:06:09.370Z,100775.03
2022-09-03T00:08:40.700Z,100763.44
2022-09-03T00:11:16.314Z,100768.75
2022-09-03T00:13:50.440Z,100762.69
2022-09-03T00:16:22.846Z,100767.03
2022-09-03T00:19:03.674Z,100756.50
2022-09-03T00:21:45.985Z,100754.81
2022-09-03T00:24:18.062Z,100765.34
2022-09-03T00:26:52.081Z,100767.28
2022-09-03T00:29:25.247Z,100756.50
2022-09-03T00:31:57.474Z,100758.31
2022-09-03T00:34:31.641Z,100760.97
2022-09-03T00:36:59.373Z,100761.09
2022-09-03T00:39:28.169Z,100758.53
2022-09-03T00:42:08.196Z,100759.41
2022-09-03T00:44:57.190Z,100755.88
2022-09-03T00:47:36.246Z,100751.53
2022-09-03T00:50:25.645Z,100742.56
2022-09-03T00:53:03.071Z,100742.69
2022-09-03T00:56:04.319Z,100737.34
2022-09-03T00:59:09.385Z,100735.56
2022-09-03T01:01:58.253Z,100737.44
2022-09-03T01:04:50.840Z,100741.94
2022-09-03T01:07:36.972Z,100747.28
2022-09-03T01:10:44.816Z,100745.44
2022-09-03T01:13:32.228Z,100751.75
2022-09-03T01:16:22.395Z,100745.44
2022-09-03T01:18:58.219Z,100743.75
2022-09-03T01:22:22.384Z,100746.41
2022-09-03T01:24:51.768Z,100745.44
2022-09-03T01:27:55.945Z,100748.09
2022-09-03T01:30:24.446Z,100732.38
2022-09-03T01:33:00.435Z,100735.88
2022-09-03T01:35:33.164Z,100732.38
2022-09-03T01:38:00.166Z,100730.66
2022-09-03T01:40:54.001Z,100720.88
2022-09-03T01:43:37.095Z,100720.88
2022-09-03T01:46:17.071Z,100707.66
2022-09-03T01:49:11.727Z,100712.97
2022-09-03T01:51:38.872Z,100703.31
2022-09-03T01:54:50.704Z,100698.94
2022-09-03T01:57:35.444Z,100708.50
2022-09-03T02:00:10.912Z,100712.97
2022-09-03T02:02:38.197Z,100712.38
2022-09-03T02:05:19.259Z,100715.75
2022-09-03T02:07:53.260Z,100714.91
2022-09-03T02:10:32.567Z,100716.63
2022-09-03T02:13:06.052Z,100707.91
2022-09-03T02:15:36.064Z,100710.56
2022-09-03T02:18:06.321Z,100706.19
2022-09-03T02:20:34.287Z,100723.03
2022-09-03T02:23:01.280Z,100711.53
2022-09-03T02:25:37.072Z,100708.94
2022-09-03T02:28:06.005Z,100709.81
2022-09-03T02:30:43.155Z,100714.28
2022-09-03T02:33:10.921Z,100705.47
2022-09-03T02:35:38.023Z,100700.13
2022-09-03T02:38:17.341Z,100701.94
2022-09-03T02:40:44.802Z,100700.97
2022-09-03T02:43:33.151Z,100685.97
2022-09-03T02:46:04.418Z,100692.16
2022-09-03T02:48:31.272Z,100693.09
2022-09-03T02:50:58.134Z,100698.41
2022-09-03T02:53:25.182Z,100694.91
2022-09-03T02:55:52.043Z,100694.06
2022-09-03T02:58:18.939Z,100687.91
2022-09-03T03:00:45.835Z,100684.38
2022-09-03T03:03:12.739Z,100686.19
2022-09-03T03:05:47.340Z,100688.00
2022-09-03T03:08:20.138Z,100682.56
2022-09-03T03:10:52.368Z,100680.88
2022-09-03T03:13:19.414Z,100688.00
2022-09-03T03:15:48.112Z,100680.00
2022-09-03T03:18:15.637Z,100667.69
2022-09-03T03:20:42.733Z,100673.84
2022-09-03T03:23:10.101Z,100667.69
2022-09-03T03:25:39.149Z,100660.66
2022-09-03T03:28:07.036Z,100671.28
2022-09-03T03:30:34.838Z,100665.13
2022-09-03T03:33:01.789Z,100658.94
2022-09-03T03:35:28.613Z,100659.78
2022-09-03T03:37:58.846Z,100665.25
2022-09-03T03:40:25.990Z,100656.41
2022-09-03T03:42:53.896Z,100655.44
2022-09-03T03:45:21.020Z,100649.28
2022-09-03T03:47:47.834Z,100649.28
2022-09-03T03:50:14.784Z,100652.78
2022-09-03T03:52:41.694Z,100655.53
2022-09-03T03:55:09.001Z,100650.22
2022-09-03T03:57:37.240Z,100655.53
2022-09-03T04:00:04.889Z,100663.53
2022-09-03T04:02:34.158Z,100646.59
2022-09-03T04:05:02.990Z,100636.06
2022-09-03T04:07:30.156Z,100641.38
2022-09-03T04:09:57.814Z,100632.53
2022-09-03T04:12:24.693Z,100631.72
2022-09-03T04:14:51.564Z,100627.34
2022-09-03T04:17:21.034Z,100640.66
2022-09-03T04:19:51.494Z,100646.81
2022-09-03T04:22:19.367Z,100641.50
2022-09-03T04:24:46.412Z,100650.44
2022-09-03T04:27:13.372Z,100640.78
2022-09-03T04:29:40.226Z,100644.25
2022-09-03T04:32:25.512Z,100638.13
2022-09-03T04:34:52.402Z,100648.75
2022-09-03T04:37:20.585Z,100648.75
2022-09-03T04:39:47.517Z,100655.75
2022-09-03T04:42:14.437Z,100647.78
2022-09-03T04:44:41.525Z,100645.13
2022-09-03T04:47:08.462Z,100640.78
2022-09-03T04:49:35.359Z,100640.78
2022-09-03T04:52:03.618Z,100642.59
2022-09-03T04:54:31.492Z,100645.34
2022-09-03T04:56:58.341Z,100646.19
2022-09-03T04:59:25.201Z,100635.53
2022-09-03T05:01:56.645Z,100636.41
2022-09-03T05:04:23.581Z,100638.31
2022-09-03T05:06:50.443Z,100632.97
2022-09-03T05:09:17.292Z,100631.09
2022-09-03T05:11:45.243Z,100633.75
2022-09-03T05:14:12.932Z,100641.72
2022-09-03T05:16:40.108Z,100631.09
2022-09-03T05:19:08.260Z,100633.75
2022-09-03T05:21:38.705Z,100628.28
2022-09-03T05:24:05.903Z,100631.09
2022-09-03T05:26:37.369Z,100632.78
2022-09-03T05:29:08.865Z,100632.78
2022-09-03T05:31:39.297Z,100631.94
2022-09-03T05:34:06.780Z,100630.84
2022-09-03T05:36:36.703Z,100640.53
2022-09-03T05:39:05.357Z,100640.53
2022-09-03T05:41:33.890Z,100632.53
2022-09-03T05:44:00.866Z,100638.13
2022-09-03T05:46:33.145Z,100636.19
2022-09-03T05:49:02.410Z,100641.50
2022-09-03T05:51:30.827Z,100628.28
2022-09-03T05:53:58.162Z,100634.47
2022-09-03T05:56:26.550Z,100636.19
2022-09-03T05:58:56.430Z,100641.50
2022-09-03T06:01:25.534Z,100629.88
2022-09-03T06:04:07.441Z,100633.41
2022-09-03T06:06:36.971Z,100634.97
2022-09-03T06:09:11.125Z,100634.03
2022-09-03T06:11:39.827Z,100630.50
2022-09-03T06:14:09.620Z,100633.19
2022-09-03T06:16:39.139Z,100626.03
2022-09-03T06:19:09.930Z,100634.88
2022-09-03T06:21:43.228Z,100633.91
2022-09-03T06:24:15.511Z,100625.91
2022-09-03T06:26:43.465Z,100632.59
2022-09-03T06:29:11.768Z,100643.16
2022-09-03T06:31:40.197Z,100628.03
2022-09-03T06:34:07.717Z,100637.63
2022-09-03T06:36:34.886Z,100630.34
2022-09-03T06:39:02.038Z,100630.22
2022-09-03T06:41:35.710Z,100638.84
2022-09-03T06:44:11.738Z,100635.09
2022-09-03T06:46:42.837Z,100638.50
2022-09-03T06:49:10.575Z,100630.50
2022-09-03T06:51:38.401Z,100633.91
2022-09-03T06:54:08.122Z,100648.84
2022-09-03T06:56:40.261Z,100635.38
2022-09-03T06:59:10.268Z,100642.44
2022-09-03T07:01:44.502Z,100642.16
2022-09-03T07:04:13.553Z,100645.59
2022-09-03T07:06:43.104Z,100634.72
2022-09-03T07:09:12.072Z,100641.72
2022-09-03T07:11:47.838Z,100646.81
2022-09-03T07:14:16.865Z,100650.22
2022-09-03T07:16:44.112Z,100644.03
2022-09-03T07:19:13.858Z,100639.56
2022-09-03T07:21:45.244Z,100642.13
2022-09-03T07:24:15.514Z,100627.81
2022-09-03T07:26:49.804Z,100642.84
2022-09-03T07:29:21.093Z,100642.72
2022-09-03T07:31:52.425Z,100637.31
2022-09-03T07:34:22.278Z,100647.81
2022-09-03T07:36:51.993Z,100635.50
2022-09-03T07:39:19.149Z,100640.81
2022-09-03T07:41:47.337Z,100637.16
2022-09-03T07:44:16.528Z,100646.88
2022-09-03T07:46:45.733Z,100641.53
2022-09-03T07:49:13.388Z,100654.50
2022-09-03T07:51:40.433Z,100651.75
2022-09-03T07:54:11.694Z,100644.06
2022-09-03T07:56:40.483Z,100652.06
2022-09-03T07:59:08.733Z,100652.84
2022-09-03T08:01:38.461Z,100657.06
2022-09-03T08:04:09.716Z,100650.75
2022-09-03T08:06:38.504Z,100644.34
2022-09-03T08:09:09.318Z,100641.59
2022-09-03T08:11:39.024Z,100650.31
2022-09-03T08:14:08.723Z,100658.16
2022-09-03T08:16:50.036Z,100659.75
2022-09-03T08:19:23.621Z,100655.41
2022-09-03T08:21:50.698Z,100661.59
2022-09-03T08:24:21.661Z,100650.81
2022-09-03T08:26:52.153Z,100647.06
2022-09-03T08:29:20.469Z,100649.63
2022-09-03T08:31:47.741Z,100651.06
2022-09-03T08:34:15.041Z,100646.41
2022-09-03T08:36:42.283Z,100647.22
2022-09-03T08:39:11.254Z,100653.19
2022-09-03T08:41:47.196Z,100651.38
2022-09-03T08:44:17.099Z,100649.19
2022-09-03T08:47:12.463Z,100652.72
2022-09-03T08:49:58.037Z,100652.47
2022-09-03T08:52:32.738Z,100656.25
2022-09-03T08:55:16.727Z,100661.56
2022-09-03T08:57:49.989Z,100657.19
2022-09-03T09:00:18.333Z,100664.22
2022-09-03T09:02:57.701Z,100659.84
2022-09-03T09:05:55.206Z,100665.91
2022-09-03T09:08:39.963Z,100658.66
2022-09-03T09:11:28.069Z,100658.66
2022-09-03T09:14:02.565Z,100659.41
2022-09-03T09:17:08.174Z,100661.81
2022-09-03T09:19:59.092Z,100650.19
2022-09-03T09:22:29.035Z,100666.94
2022-09-03T09:24:59.583Z,100672.13
2022-09-03T09:27:26.724Z,100682.66
2022-09-03T09:29:55.450Z,100678.09
2022-09-03T09:32:22.393Z,100668.38
2022-09-03T09:34:52.239Z,100670.81
2022-09-03T09:37:20.442Z,100677.94
2022-09-03T09:40:00.117Z,100684.13
2022-09-03T09:42:30.257Z,100695.66
2022-09-03T09:44:57.256Z,100697.34
2022-09-03T09:47:37.162Z,100702.56
2022-09-03T09:50:04.958Z,100700.63
2022-09-03T09:52:32.507Z,100698.91
2022-09-03T09:55:15.585Z,100704.16
2022-09-03T09:57:42.648Z,100700.63
2022-09-03T10:00:13.597Z,100688.16
2022-09-03T10:02:57.437Z,100688.16
2022-09-03T10:05:27.514Z,100696.88
2022-09-03T10:07:59.651Z,100689.00
2022-09-03T10:10:29.333Z,100694.22
2022-09-03T10:13:10.401Z,100694.34
2022-09-03T10:15:40.378Z,100705.00
2022-09-03T10:18:39.427Z,100707.69
2022-09-03T10:21:35.623Z,100710.22
2022-09-03T10:24:20.899Z,100710.34
2022-09-03T10:26:51.883Z,100715.78
2022-09-03T10:29:23.595Z,100709.81
2022-09-03T10:32:42.736Z,100721.47
2022-09-03T10:35:30.975Z,100718.91
2022-09-03T10:38:23.842Z,100723.41
2022-09-03T10:40:50.972Z,100726.19
2022-09-03T10:43:46.254Z,100722.66
2022-09-03T10:46:23.823Z,100727.25
2022-09-03T10:49:12.121Z,100722.91
2022-09-03T10:52:15.971Z,100735.38
2022-09-03T10:54:56.457Z,100743.63
2022-09-03T10:57:54.465Z,100733.69
2022-09-03T11:00:23.042Z,100728.34
2022-09-03T11:03:31.991Z,100740.81
2022-09-03T11:06:02.001Z,100740.09
2022-09-03T11:08:34.698Z,100740.31
2022-09-03T11:11:29.880Z,100751.22
2022-09-03T11:14:11.155Z,100743.13
2022-09-03T11:16:53.612Z,100746.63
2022-09-03T11:19:31.285Z,100737.66
2022-09-03T11:21:58.881Z,100735.00
2022-09-03T11:24:33.454Z,100744.69
2022-09-03T11:27:14.691Z,100742.13
2022-09-03T11:30:00.559Z,100734.91
2022-09-03T11:32:55.942Z,100734.91
2022-09-03T11:35:31.978Z,100727.13
2022-09-03T11:38:07.940Z,100720.09
2022-09-03T11:40:40.558Z,100730.75
2022-09-03T11:43:11.854Z,100734.25
2022-09-03T11:45:39.584Z,100727.00
2022-09-03T11:48:33.641Z,100734.03
2022-09-03T11:51:00.991Z,100729.31
2022-09-03T11:53:35.329Z,100732.59
2022-09-03T11:56:14.822Z,100727.16
2022-09-03T11:58:43.772Z,100723.63
2022-09-03T12:01:16.326Z,100718.31
2022-09-03T12:03:55.079Z,100726.31
2022-09-03T12:07:20.119Z,100728.75
2022-09-03T12:09:51.888Z,100727.88
2022-09-03T12:12:37.185Z,100731.28
2022-09-03T12:15:10.265Z,100721.47
2022-09-03T12:18:13.574Z,100726.56
2022-09-03T12:20:41.940Z,100728.25
2022-09-03T12:23:17.755Z,100722.09
2022-09-03T12:25:47.774Z,100715.91
2022-09-03T12:28:23.520Z,100728.88
2022-09-03T12:30:53.992Z,100715.53
2022-09-03T12:33:23.274Z,100715.41
2022-09-03T12:35:58.747Z,100725.25
2022-09-03T12:38:27.936Z,100720.75
2022-09-03T12:43:46.198Z,100737.59
2022-09-03T12:46:17.897Z,100741.25
2022-09-03T12:52:06.171Z,100752.75
2022-09-03T12:54:39.605Z,100742.94
2022-09-03T12:57:06.976Z,100729.72
2022-09-03T12:59:37.635Z,100733.34
2022-09-03T13:02:16.391Z,100732.41
2022-09-03T13:04:45.654Z,100733.34
2022-09-03T13:07:21.954Z,100711.28
2022-09-03T13:09:49.560Z,100714.09
2022-09-03T13:12:28.791Z,100716.75
2022-09-03T13:14:57.547Z,100719.53
2022-09-03T13:17:52.387Z,100723.16
2022-09-03T13:20:34.696Z,100728.47
2022-09-03T13:23:16.079Z,100721.47
2022-09-03T13:25:59.898Z,100727.66
2022-09-03T13:28:45.583Z,100732.13
2022-09-03T13:31:37.675Z,100729.47
2022-09-03T13:34:16.844Z,100725.09
2022-09-03T13:36:57.174Z,100734.06
2022-09-03T13:39:26.793Z,100732.22
2022-09-03T13:42:02.501Z,100730.41
2022-09-03T13:44:38.767Z,100731.28
2022-09-03T13:47:30.337Z,100733.00
2022-09-03T13:50:24.331Z,100736.47
2022-09-03T13:52:52.691Z,100724.13
2022-09-03T13:55:31.780Z,100725.94
2022-09-03T13:58:06.058Z,100725.94
2022-09-03T14:00:54.945Z,100723.41
2022-09-03T14:03:30.996Z,100728.84
2022-09-03T14:06:19.752Z,100730.56
2022-09-03T14:09:08.005Z,100720.84
2022-09-03T14:12:34.663Z,100729.56
2022-09-03T14:15:10.917Z,100726.06
2022-09-03T14:17:48.697Z,100718.06
2022-09-03T14:20:28.072Z,100711.75
2022-09-03T14:23:05.488Z,100719.03
2022-09-03T14:25:33.171Z,100715.41
2022-09-03T14:28:50.065Z,100715.41
2022-09-03T14:31:37.729Z,100711.88
2022-09-03T14:34:31.196Z,100700.50
2022-09-03T14:37:16.305Z,100714.66
2022-09-03T14:39:56.003Z,100711.25
2022-09-03T14:42:43.315Z,100706.78
2022-09-03T14:45:37.824Z,100704.25
2022-09-03T14:48:40.158Z,100694.09
2022-09-03T14:51:52.313Z,100693.09
2022-09-03T14:54:57.136Z,100694.81
2022-09-03T14:57:45.813Z,100676.13
2022-09-03T15:00:22.926Z,100687.75
2022-09-03T15:03:03.348Z,100689.47
2022-09-03T15:06:06.828Z,100691.06
2022-09-03T15:09:03.872Z,100684.13
2022-09-03T15:11:35.664Z,100686.66
2022-09-03T15:14:30.410Z,100684.13
2022-09-03T15:17:08.943Z,100681.56
2022-09-03T15:19:51.858Z,100677.09
2022-09-03T15:22:40.058Z,100685.09
2022-09-03T15:25:21.913Z,100688.47
2022-09-03T15:28:06.223Z,100680.47
2022-09-03T15:30:48.879Z,100687.66
2022-09-03T15:33:31.430Z,100689.47
2022-09-03T15:36:19.825Z,100682.31
2022-09-03T15:39:15.235Z,100677.72
2022-09-03T15:41:47.284Z,100685.81
2022-09-03T15:44:19.488Z,100691.16
2022-09-03T15:46:53.448Z,100689.25
2022-09-03T15:49:46.224Z,100694.56
2022-09-03T15:52:31.358Z,100693.00
2022-09-03T15:55:11.643Z,100694.81
2022-09-03T15:58:10.207Z,100690.44
2022-09-03T16:01:15.401Z,100691.41
2022-09-03T16:03:59.810Z,100684.13
2022-09-03T16:06:44.506Z,100687.53
2022-09-03T16:09:44.634Z,100693.81
2022-09-03T16:12:31.252Z,100683.16
2022-09-03T16:15:08.383Z,100689.47
2022-09-03T16:17:55.862Z,100688.75
2022-09-03T16:20:31.684Z,100686.09
2022-09-03T16:23:16.698Z,100689.94
2022-09-03T16:26:05.831Z,100697.06
2022-09-03T16:28:58.794Z,100696.34
2022-09-03T16:31:47.053Z,100698.16
2022-09-03T16:34:31.151Z,100694.63
2022-09-03T16:37:13.752Z,100677.69
2022-09-03T16:40:01.058Z,100666.31
2022-09-03T16:42:57.630Z,100669.69
2022-09-03T16:46:09.913Z,100670.56
2022-09-03T16:48:57.024Z,100666.94
2022-09-03T16:51:35.862Z,100673.69
2022-09-03T16:54:18.906Z,100680.47
2022-09-03T16:57:14.596Z,100679.19
2022-09-03T17:00:02.715Z,100680.38
2022-09-03T17:02:46.088Z,100676.28
2022-09-03T17:05:26.502Z,100683.81
2022-09-03T17:08:32.975Z,100679.09
2022-09-03T17:11:06.180Z,100677.88
2022-09-03T17:13:54.448Z,100669.78
2022-09-03T17:16:40.122Z,100666.16
2022-09-03T17:19:45.015Z,100677.78
2022-09-03T17:22:39.455Z,100680.47
2022-09-03T17:25:30.801Z,100674.28
2022-09-03T17:28:24.141Z,100680.31
2022-09-03T17:31:12.225Z,100682.91
2022-09-03T17:33:40.573Z,100683.84
2022-09-03T17:36:21.882Z,100686.50
2022-09-03T17:39:28.926Z,100690.13
2022-09-03T17:41:59.031Z,100692.78
2022-09-03T17:44:38.015Z,100691.00
2022-09-03T17:47:26.968Z,100687.47
2022-09-03T17:50:07.648Z,100694.63
2022-09-03T17:52:56.011Z,100698.13
2022-09-03T17:55:40.304Z,100687.47
2022-09-03T17:58:42.711Z,100687.38
2022-09-03T18:01:22.248Z,100673.19
2022-09-03T18:04:04.958Z,100672.09
2022-09-03T18:06:41.582Z,100680.94
2022-09-03T18:09:11.245Z,100682.66
2022-09-03T18:11:40.042Z,100684.34
2022-09-03T18:14:16.875Z,100690.53
2022-09-03T18:16:53.163Z,100701.19
2022-09-03T18:20:02.785Z,100693.06
2022-09-03T18:23:00.008Z,100686.78
2022-09-03T18:25:49.364Z,100699.88
2022-09-03T18:28:40.893Z,100707.41
2022-09-03T18:31:32.865Z,100713.09
2022-09-03T18:34:18.339Z,100707.53
2022-09-03T18:37:03.885Z,100711.78
2022-09-03T18:39:50.641Z,100721.38
2022-09-03T18:43:03.055Z,100727.31
2022-09-03T18:49:19.378Z,100733.25
2022-09-03T18:52:16.960Z,100732.19
2022-09-03T18:55:20.909Z,100734.09
2022-09-03T18:58:24.373Z,100750.72
2022-09-03T19:01:36.464Z,100747.13
2022-09-03T19:04:34.640Z,100751.47
2022-09-03T19:07:40.321Z,100752.44
2022-09-03T19:10:55.846Z,100762.25
2022-09-03T19:13:55.056Z,100765.25
2022-09-03T19:17:05.247Z,100761.00
2022-09-03T19:20:21.838Z,100760.19
2022-09-03T19:23:08.501Z,100772.53
2022-09-03T19:25:58.092Z,100763.81
2022-09-03T19:29:06.769Z,100759.34
2022-09-03T19:32:11.911Z,100762.72
2022-09-03T19:35:00.447Z,100763.69
2022-09-03T19:38:27.936Z,100760.28
2022-09-03T19:42:09.239Z,100759.56
2022-09-03T19:45:20.241Z,100763.31
2022-09-03T19:48:38.549Z,100758.69
2022-09-03T19:52:09.093Z,100761.28
2022-09-03T19:54:56.585Z,100766.34
2022-09-03T19:57:45.249Z,100758.47
2022-09-03T20:00:33.246Z,100757.63
2022-09-03T20:03:21.445Z,100762.09
2022-09-03T20:06:11.268Z,100761.50
2022-09-03T20:08:59.553Z,100755.19
2022-09-03T20:11:31.132Z,100754.00
2022-09-03T20:14:16.813Z,100751.31
2022-09-03T20:17:16.381Z,100762.34
2022-09-03T20:20:04.779Z,100763.41
2022-09-03T20:22:53.330Z,100766.34
2022-09-03T20:25:39.444Z,100766.34
2022-09-03T20:28:44.497Z,100769.00
2022-09-03T20:31:43.271Z,100762.09
2022-09-03T20:34:48.310Z,100764.75
2022-09-03T20:37:32.618Z,100770.19
2022-09-03T20:40:15.501Z,100760.47
2022-09-03T20:43:22.777Z,100767.75
2022-09-03T20:45:53.075Z,100771.16
2022-09-03T20:49:05.190Z,100763.28
2022-09-03T20:51:41.781Z,100766.06
2022-09-03T20:54:22.546Z,100763.50
2022-09-03T20:56:55.861Z,100767.88
2022-09-03T20:59:25.838Z,100764.84
2022-09-03T21:02:02.296Z,100756.00
2022-09-03T21:04:35.741Z,100760.25
2022-09-03T21:07:40.126Z,100758.56
2022-09-03T21:10:38.747Z,100762.19
2022-09-03T21:13:17.805Z,100773.81
2022-09-03T21:15:56.936Z,100766.78
2022-09-03T21:18:33.592Z,100770.19
2022-09-03T21:21:27.161Z,100772.00
2022-09-03T21:24:10.619Z,100769.34
2022-09-03T21:26:46.555Z,100775.75
2022-09-03T21:29:32.311Z,100773.09
2022-09-03T21:32:08.673Z,100771.16
2022-09-03T21:34:51.389Z,100774.16
2022-09-03T21:37:19.538Z,100762.91
2022-09-03T21:39:56.210Z,100761.44
2022-09-03T21:42:44.639Z,100768.69
2022-09-03T21:45:24.338Z,100761.66
2022-09-03T21:47:58.749Z,100765.41
2022-09-03T21:50:36.013Z,100777.88
2022-09-03T21:53:09.995Z,100768.28
2022-09-03T21:55:55.376Z,100756.78
2022-09-03T21:58:51.347Z,100765.03
2022-09-03T22:01:42.967Z,100778.34
2022-09-03T22:04:10.144Z,100769.59
2022-09-03T22:06:45.148Z,100774.09
2022-09-03T22:09:12.115Z,100784.84
2022-09-03T22:11:51.620Z,100780.47
2022-09-03T22:14:21.823Z,100772.63
2022-09-03T22:16:49.425Z,100777.09
2022-09-03T22:19:16.960Z,100776.31
2022-09-03T22:22:00.143Z,100776.47
2022-09-03T22:24:48.471Z,100783.59
2022-09-03T22:27:31.072Z,100779.22
2022-09-03T22:30:06.601Z,100776.69
2022-09-03T22:33:10.973Z,100780.28
2022-09-03T22:36:15.427Z,100776.03
2022-09-03T22:39:11.301Z,100781.38
2022-09-03T22:42:08.421Z,100780.53
2022-09-03T22:44:39.969Z,100789.38
2022-09-03T22:47:29.338Z,100782.59
2022-09-03T22:50:12.818Z,100785.25
2022-09-03T22:52:45.848Z,100790.56
2022-09-03T22:55:25.918Z,100780.97
2022-09-03T22:58:22.757Z,100779.16
2022-09-03T23:00:57.609Z,100778.44
2022-09-03T23:03:45.602Z,100791.00
2022-09-03T23:06:51.259Z,100784.69
2022-09-03T23:09:22.999Z,100785.69
2022-09-03T23:11:57.758Z,100784.84
2022-09-03T23:14:34.576Z,100788.34
2022-09-03T23:17:08.332Z,100787.63
2022-09-03T23:19:44.176Z,100796.56
2022-09-03T23:22:22.165Z,100788.56
2022-09-03T23:24:55.503Z,100789.53
2022-09-03T23:27:48.594Z,100785.19
2022-09-03T23:30:15.818Z,100785.28
2022-09-03T23:32:44.197Z,100787.22
2022-09-03T23:35:18.286Z,100785.28
2022-09-03T23:37:48.003Z,100782.72
2022-09-03T23:40:27.672Z,100776.56
2022-09-03T23:43:25.089Z,100777.41
2022-09-03T23:46:16.747Z,100774.00
2022-09-03T23:48:46.578Z,100777.50
2022-09-03T23:51:46.727Z,100780.28
2022-09-03T23:54:20.226Z,100783.81
2022-09-03T23:56:58.852Z,100789.22
2022-09-03T23:59:41.008Z,100782.94
